Brimfield, Illinois
Current Conditions -  °F | °C
As of 8:54 PM on Friday 19 Dec 2014 (Local Time) from KPIA Reporting Station
Clear Clear  
Wind Chill: 23°   Ceiling: Unl
Heat Index: 29°   Visibility: 10mi
Dew Point: 21°   Wind: 6mph
Humidity: 72%   Direction: 90°E
Pressure: 30.26"   Gusts: NA
Location:  40.84°N, 89.89°W
Report Text: KPIA 200254Z 09005KT 10SM CLR M02/M06 A3026 RMK AO2 SLP257 T10171061 58006
Loading
Personal Weather Stations






























Interactive Weather Map New forecast layout! Learn more

10-Day Weather Forecast

Advertisements
Track Severe Weather on mobile